Weather data: current Dienstag, 30.05.2017 12:35
Date Time Temperature Humidity Barometer Rain Wind Direction Direction Dew point Wind chill Wind gust
30.05.2017 12:35 21,5 C 74 % 1017,9 hPa 0,0 l/m 6,1 km/h (2 Bft) NW 308 16,7 C 21,5 C 14,5 km/h (3 Bft)
30.05.2017 12:30 21,4 C 74 % 1017,9 hPa 0,0 l/m 6,3 km/h (2 Bft) SW 230 16,6 C 21,4 C 17,7 km/h (3 Bft)
30.05.2017 12:25 21,2 C 75 % 1017,9 hPa 0,0 l/m 8,2 km/h (2 Bft) S-SW 193 16,6 C 20,5 C 17,7 km/h (3 Bft)
30.05.2017 12:20 21,5 C 73 % 1017,8 hPa 0,0 l/m 6,3 km/h (2 Bft) W-SW 243 16,4 C 21,5 C 14,5 km/h (3 Bft)
30.05.2017 12:15 21,3 C 75 % 1017,9 hPa 0,0 l/m 6,2 km/h (2 Bft) S-SW 195 16,7 C 21,3 C 12,9 km/h (3 Bft)
30.05.2017 12:10 21,2 C 75 % 1017,8 hPa 0,0 l/m 7,0 km/h (2 Bft) SE 139 16,6 C 21,0 C 16,1 km/h (3 Bft)
30.05.2017 12:05 21,3 C 76 % 1017,8 hPa 0,0 l/m 7,1 km/h (2 Bft) SW 225 16,9 C 21,0 C 19,3 km/h (3 Bft)
30.05.2017 12:00 21,3 C 74 % 1017,8 hPa 0,0 l/m 7,3 km/h (2 Bft) S-SW 207 16,5 C 21,0 C 14,5 km/h (3 Bft)
30.05.2017 11:55 21,6 C 74 % 1017,8 hPa 0,0 l/m 5,7 km/h (1 Bft) W-SW 243 16,8 C 21,6 C 12,9 km/h (3 Bft)
30.05.2017 11:50 21,4 C 74 % 1017,8 hPa 0,0 l/m 6,1 km/h (2 Bft) S-SW 194 16,6 C 21,4 C 12,9 km/h (3 Bft)
30.05.2017 11:45 21,7 C 74 % 1017,8 hPa 0,0 l/m 5,3 km/h (1 Bft) SW 216 16,9 C 21,7 C 12,9 km/h (3 Bft)
30.05.2017 11:40 21,5 C 74 % 1017,8 hPa 0,0 l/m 5,4 km/h (1 Bft) S-SE 148 16,7 C 21,5 C 12,9 km/h (3 Bft)
30.05.2017 11:35 21,5 C 73 % 1017,8 hPa 0,0 l/m 7,5 km/h (2 Bft) S 184 16,4 C 21,1 C 14,5 km/h (3 Bft)
30.05.2017 11:30 21,4 C 73 % 1017,8 hPa 0,0 l/m 5,6 km/h (1 Bft) S 177 16,4 C 21,4 C 12,9 km/h (3 Bft)
30.05.2017 11:25 21,4 C 72 % 1017,8 hPa 0,0 l/m 7,2 km/h (2 Bft) S-SE 164 16,1 C 21,1 C 17,7 km/h (3 Bft)
30.05.2017 11:20 21,2 C 74 % 1017,7 hPa 0,0 l/m 6,9 km/h (2 Bft) SW 231 16,4 C 21,0 C 12,9 km/h (3 Bft)
30.05.2017 11:15 21,3 C 73 % 1017,7 hPa 0,0 l/m 8,2 km/h (2 Bft) SW 235 16,3 C 20,6 C 12,9 km/h (3 Bft)
30.05.2017 11:10 21,6 C 72 % 1017,6 hPa 0,0 l/m 5,5 km/h (1 Bft) SW 225 16,3 C 21,6 C 14,5 km/h (3 Bft)
30.05.2017 11:05 21,8 C 70 % 1017,6 hPa 0,0 l/m 4,9 km/h (1 Bft) W-NW 292 16,1 C 21,8 C 11,3 km/h (2 Bft)
30.05.2017 11:00 21,7 C 73 % 1017,5 hPa 0,0 l/m 4,9 km/h (1 Bft) S 177 16,6 C 21,7 C 12,9 km/h (3 Bft)
30.05.2017 10:55 21,4 C 71 % 1017,5 hPa 0,0 l/m 6,0 km/h (2 Bft) W-SW 257 15,9 C 21,4 C 14,5 km/h (3 Bft)
30.05.2017 10:50 21,6 C 70 % 1017,5 hPa 0,0 l/m 4,4 km/h (1 Bft) W 276 15,9 C 21,6 C 11,3 km/h (2 Bft)
30.05.2017 10:45 21,8 C 70 % 1017,5 hPa 0,0 l/m 3,6 km/h (1 Bft) W-SW 254 16,1 C 21,8 C 9,7 km/h (2 Bft)
30.05.2017 10:40 21,9 C 69 % 1017,4 hPa 0,0 l/m 3,5 km/h (1 Bft) W-NW 286 15,9 C 21,9 C 11,3 km/h (2 Bft)
30.05.2017 10:35 21,8 C 72 % 1017,4 hPa 0,0 l/m 5,7 km/h (1 Bft) S-SW 210 16,5 C 21,8 C 11,3 km/h (2 Bft)
30.05.2017 10:30 21,7 C 71 % 1017,4 hPa 0,0 l/m 6,5 km/h (2 Bft) SW 219 16,2 C 21,7 C 12,9 km/h (3 Bft)
30.05.2017 10:25 21,5 C 72 % 1017,3 hPa 0,0 l/m 7,5 km/h (2 Bft) S-SE 160 16,2 C 21,1 C 12,9 km/h (3 Bft)
30.05.2017 10:20 21,7 C 72 % 1017,2 hPa 0,0 l/m 8,0 km/h (2 Bft) S 188 16,4 C 21,1 C 14,5 km/h (3 Bft)
30.05.2017 10:15 21,7 C 72 % 1017,3 hPa 0,0 l/m 3,4 km/h (1 Bft) S-SE 166 16,4 C 21,7 C 8,0 km/h (2 Bft)
30.05.2017 10:10 20,9 C 72 % 1017,3 hPa 0,0 l/m 0,6 km/h (0 Bft) S-SE 149 15,7 C 20,9 C 3,2 km/h (1 Bft)
30.05.2017 10:05 20,5 C 73 % 1017,2 hPa 0,0 l/m 4,0 km/h (1 Bft) NW 320 15,5 C 20,5 C 6,4 km/h (2 Bft)
30.05.2017 10:00 20,6 C 70 % 1017,3 hPa 0,0 l/m 3,2 km/h (1 Bft) W-NW 283 14,9 C 20,6 C 8,0 km/h (2 Bft)
30.05.2017 09:55 20,4 C 71 % 1017,3 hPa 0,0 l/m 4,5 km/h (1 Bft) W 280 15,0 C 20,4 C 8,0 km/h (2 Bft)
30.05.2017 09:50 20,3 C 74 % 1017,2 hPa 0,0 l/m 5,1 km/h (1 Bft) W-NW 282 15,5 C 20,3 C 8,0 km/h (2 Bft)
30.05.2017 09:45 20,4 C 73 % 1017,2 hPa 0,0 l/m 7,2 km/h (2 Bft) NW 304 15,4 C 20,1 C 9,7 km/h (2 Bft)
30.05.2017 09:40 20,9 C 73 % 1017,2 hPa 0,0 l/m 4,6 km/h (1 Bft) N-NW 337 15,9 C 20,9 C 8,0 km/h (2 Bft)
30.05.2017 09:35 20,9 C 70 % 1017,2 hPa 0,0 l/m 2,7 km/h (1 Bft) W-NW 287 15,2 C 20,9 C 20,9 km/h (4 Bft)
30.05.2017 09:30 20,7 C 69 % 1017,2 hPa 0,0 l/m 2,3 km/h (1 Bft) W-NW 286 14,8 C 20,7 C 4,8 km/h (1 Bft)
30.05.2017 09:25 20,6 C 71 % 1017,2 hPa 0,0 l/m 2,2 km/h (1 Bft) W-NW 288 15,2 C 20,6 C 6,4 km/h (2 Bft)
30.05.2017 09:20 20,4 C 71 % 1017,2 hPa 0,0 l/m 5,1 km/h (1 Bft) N-NW 333 15,0 C 20,4 C 8,0 km/h (2 Bft)
30.05.2017 09:15 20,4 C 71 % 1017,2 hPa 0,0 l/m 6,0 km/h (2 Bft) N-NW 328 15,0 C 20,4 C 8,0 km/h (2 Bft)
30.05.2017 09:10 20,5 C 72 % 1017,2 hPa 0,0 l/m 3,8 km/h (1 Bft) N 359 15,3 C 20,5 C 6,4 km/h (2 Bft)
30.05.2017 09:05 20,4 C 73 % 1017,1 hPa 0,0 l/m 5,4 km/h (1 Bft) N 3 15,4 C 20,4 C 9,7 km/h (2 Bft)
30.05.2017 09:00 20,4 C 72 % 1017,0 hPa 0,0 l/m 4,8 km/h (1 Bft) NW 308 15,2 C 20,4 C 8,0 km/h (2 Bft)
30.05.2017 08:55 20,3 C 78 % 1017,0 hPa 0,0 l/m 5,2 km/h (1 Bft) N-NW 338 16,3 C 20,3 C 9,7 km/h (2 Bft)
30.05.2017 08:50 20,1 C 74 % 1017,0 hPa 0,0 l/m 7,8 km/h (2 Bft) NW 311 15,3 C 19,5 C 11,3 km/h (2 Bft)
30.05.2017 08:45 20,4 C 75 % 1016,9 hPa 0,0 l/m 5,6 km/h (1 Bft) N-NW 336 15,8 C 20,4 C 9,7 km/h (2 Bft)
30.05.2017 08:40 20,4 C 76 % 1016,9 hPa 0,0 l/m 5,4 km/h (1 Bft) N-NE 17 16,0 C 20,4 C 9,7 km/h (2 Bft)
30.05.2017 08:35 20,4 C 76 % 1016,8 hPa 0,0 l/m 5,3 km/h (1 Bft) NW 324 16,0 C 20,4 C 9,7 km/h (2 Bft)
30.05.2017 08:30 20,4 C 74 % 1016,7 hPa 0,0 l/m 5,1 km/h (1 Bft) NW 312 15,6 C 20,4 C 8,0 km/h (2 Bft)
30.05.2017 08:25 20,6 C 72 % 1016,7 hPa 0,0 l/m 4,0 km/h (1 Bft) W-NW 301 15,4 C 20,6 C 8,0 km/h (2 Bft)
30.05.2017 08:20 20,7 C 72 % 1016,7 hPa 0,0 l/m 1,4 km/h (1 Bft) W-NW 285 15,5 C 20,7 C 4,8 km/h (1 Bft)
30.05.2017 08:15 20,8 C 73 % 1016,7 hPa 0,0 l/m 3,3 km/h (1 Bft) NW 306 15,8 C 20,8 C 6,4 km/h (2 Bft)
30.05.2017 08:10 21,3 C 67 % 1016,8 hPa 0,0 l/m 1,0 km/h (0 Bft) W-NW 283 14,9 C 21,3 C 4,8 km/h (1 Bft)
30.05.2017 08:05 21,4 C 67 % 1016,7 hPa 0,0 l/m 1,0 km/h (0 Bft) W-NW 291 15,0 C 21,4 C 3,2 km/h (1 Bft)
30.05.2017 08:00 21,5 C 66 % 1016,7 hPa 0,0 l/m 0,0 km/h (0 Bft) W 276 14,9 C 21,5 C 0,0 km/h (0 Bft)
30.05.2017 07:55 21,7 C 66 % 1016,6 hPa 0,0 l/m 0,0 km/h (0 Bft) W 276 15,1 C 21,7 C 0,0 km/h (0 Bft)
30.05.2017 07:50 21,2 C 67 % 1016,6 hPa 0,0 l/m 0,0 km/h (0 Bft) W 276 14,8 C 21,2 C 1,6 km/h (1 Bft)
30.05.2017 07:45 20,6 C 68 % 1016,6 hPa 0,0 l/m 0,0 km/h (0 Bft) W 278 14,5 C 20,6 C 0,0 km/h (0 Bft)
30.05.2017 07:40 20,2 C 69 % 1016,5 hPa 0,0 l/m 0,0 km/h (0 Bft) W 278 14,3 C 20,2 C 0,0 km/h (0 Bft)
30.05.2017 07:35 20,1 C 68 % 1016,5 hPa 0,0 l/m 0,0 km/h (0 Bft) W 278 14,0 C 20,1 C 0,0 km/h (0 Bft)
30.05.2017 07:30 20,0 C 67 % 1016,5 hPa 0,0 l/m 1,4 km/h (1 Bft) W 271 13,7 C 20,0 C 4,8 km/h (1 Bft)
30.05.2017 07:25 20,2 C 66 % 1016,4 hPa 0,0 l/m 2,4 km/h (1 Bft) W-NW 285 13,6 C 20,2 C 6,4 km/h (2 Bft)
30.05.2017 07:20 20,7 C 64 % 1016,3 hPa 0,0 l/m 3,2 km/h (1 Bft) N-NE 26 13,6 C 20,7 C 11,3 km/h (2 Bft)
30.05.2017 07:15 20,5 C 63 % 1016,2 hPa 0,0 l/m 2,9 km/h (1 Bft) NE 37 13,2 C 20,5 C 9,7 km/h (2 Bft)
30.05.2017 07:10 20,3 C 64 % 1016,2 hPa 0,0 l/m 1,9 km/h (1 Bft) E-NE 60 13,3 C 20,3 C 6,4 km/h (2 Bft)
30.05.2017 07:05 20,2 C 64 % 1016,1 hPa 0,0 l/m 2,0 km/h (1 Bft) NE 54 13,2 C 20,2 C 6,4 km/h (2 Bft)
30.05.2017 07:00 19,9 C 65 % 1016,2 hPa 0,0 l/m 0,2 km/h (0 Bft) NE 40 13,1 C 19,9 C 3,2 km/h (1 Bft)
30.05.2017 06:55 19,7 C 65 % 1016,1 hPa 0,0 l/m 1,7 km/h (1 Bft) E-NE 58 12,9 C 19,7 C 8,0 km/h (2 Bft)
30.05.2017 06:50 19,4 C 65 % 1016,1 hPa 0,0 l/m 3,2 km/h (1 Bft) E-NE 58 12,6 C 19,4 C 8,0 km/h (2 Bft)
30.05.2017 06:45 19,3 C 64 % 1016,0 hPa 0,0 l/m 5,6 km/h (1 Bft) E-NE 69 12,3 C 19,3 C 9,7 km/h (2 Bft)
30.05.2017 06:40 19,2 C 64 % 1016,0 hPa 0,0 l/m 3,6 km/h (1 Bft) E-NE 58 12,2 C 19,2 C 6,4 km/h (2 Bft)
30.05.2017 06:35 19,2 C 64 % 1015,9 hPa 0,0 l/m 5,0 km/h (1 Bft) E-NE 71 12,2 C 19,2 C 9,7 km/h (2 Bft)
30.05.2017 06:30 19,2 C 63 % 1015,9 hPa 0,0 l/m 5,8 km/h (2 Bft) E-NE 72 12,0 C 19,2 C 9,7 km/h (2 Bft)
30.05.2017 06:25 19,0 C 64 % 1015,9 hPa 0,0 l/m 6,3 km/h (2 Bft) NE 35 12,0 C 19,0 C 12,9 km/h (3 Bft)
30.05.2017 06:20 18,9 C 64 % 1015,9 hPa 0,0 l/m 6,5 km/h (2 Bft) NE 36 11,9 C 18,9 C 11,3 km/h (2 Bft)
30.05.2017 06:15 18,9 C 64 % 1015,8 hPa 0,0 l/m 7,7 km/h (2 Bft) NE 36 11,9 C 18,3 C 14,5 km/h (3 Bft)
30.05.2017 06:10 18,9 C 64 % 1015,8 hPa 0,0 l/m 9,1 km/h (2 Bft) NE 38 11,9 C 17,8 C 16,1 km/h (3 Bft)
30.05.2017 06:05 18,8 C 64 % 1015,7 hPa 0,0 l/m 7,7 km/h (2 Bft) E 89 11,8 C 18,2 C 14,5 km/h (3 Bft)
30.05.2017 06:00 18,9 C 64 % 1015,8 hPa 0,0 l/m 8,0 km/h (2 Bft) NE 46 11,9 C 18,2 C 12,9 km/h (3 Bft)
30.05.2017 05:55 18,9 C 64 % 1015,7 hPa 0,0 l/m 10,1 km/h (2 Bft) E-NE 60 11,9 C 17,4 C 16,1 km/h (3 Bft)
30.05.2017 05:50 18,8 C 64 % 1015,8 hPa 0,0 l/m 10,0 km/h (2 Bft) NE 46 11,8 C 17,3 C 16,1 km/h (3 Bft)
30.05.2017 05:45 18,8 C 65 % 1015,8 hPa 0,0 l/m 9,0 km/h (2 Bft) NE 34 12,1 C 17,7 C 14,5 km/h (3 Bft)
30.05.2017 05:40 18,7 C 65 % 1015,7 hPa 0,0 l/m 8,5 km/h (2 Bft) NE 45 12,0 C 17,8 C 14,5 km/h (3 Bft)
30.05.2017 05:35 18,6 C 65 % 1015,7 hPa 0,0 l/m 6,7 km/h (2 Bft) NE 37 11,9 C 18,5 C 11,3 km/h (2 Bft)
30.05.2017 05:30 18,5 C 66 % 1015,7 hPa 0,0 l/m 9,0 km/h (2 Bft) NE 39 12,0 C 17,4 C 14,5 km/h (3 Bft)
30.05.2017 05:25 18,2 C 67 % 1015,7 hPa 0,0 l/m 6,5 km/h (2 Bft) N-NE 33 12,0 C 18,2 C 16,1 km/h (3 Bft)
30.05.2017 05:20 18,1 C 68 % 1015,7 hPa 0,0 l/m 5,4 km/h (1 Bft) N-NE 23 12,1 C 18,1 C 11,3 km/h (2 Bft)
30.05.2017 05:15 18,2 C 68 % 1015,6 hPa 0,0 l/m 4,6 km/h (1 Bft) NE 43 12,2 C 18,2 C 8,0 km/h (2 Bft)
30.05.2017 05:10 18,3 C 67 % 1015,6 hPa 0,0 l/m 4,9 km/h (1 Bft) NE 40 12,1 C 18,3 C 8,0 km/h (2 Bft)
30.05.2017 05:05 18,6 C 67 % 1015,5 hPa 0,0 l/m 6,3 km/h (2 Bft) NE 34 12,3 C 18,6 C 11,3 km/h (2 Bft)
30.05.2017 05:00 18,6 C 67 % 1015,5 hPa 0,0 l/m 5,8 km/h (2 Bft) N-NE 27 12,3 C 18,6 C 9,7 km/h (2 Bft)
30.05.2017 04:55 18,6 C 66 % 1015,5 hPa 0,0 l/m 7,0 km/h (2 Bft) NE 53 12,1 C 18,3 C 11,3 km/h (2 Bft)
30.05.2017 04:50 18,5 C 67 % 1015,5 hPa 0,0 l/m 6,0 km/h (2 Bft) NE 44 12,3 C 18,5 C 11,3 km/h (2 Bft)
30.05.2017 04:45 18,4 C 68 % 1015,6 hPa 0,0 l/m 7,2 km/h (2 Bft) NE 53 12,4 C 18,0 C 12,9 km/h (3 Bft)
30.05.2017 04:40 18,3 C 68 % 1015,6 hPa 0,0 l/m 4,3 km/h (1 Bft) NE 50 12,3 C 18,3 C 11,3 km/h (2 Bft)
30.05.2017 04:35 18,4 C 68 % 1015,7 hPa 0,0 l/m 5,8 km/h (2 Bft) N-NE 32 12,4 C 18,4 C 11,3 km/h (2 Bft)
30.05.2017 04:30 18,5 C 68 % 1015,7 hPa 0,0 l/m 5,1 km/h (1 Bft) NE 51 12,5 C 18,5 C 9,7 km/h (2 Bft)
30.05.2017 04:25 18,6 C 67 % 1015,6 hPa 0,0 l/m 7,6 km/h (2 Bft) N-NE 32 12,3 C 18,1 C 11,3 km/h (2 Bft)
30.05.2017 04:20 18,7 C 67 % 1015,6 hPa 0,0 l/m 8,7 km/h (2 Bft) NE 39 12,4 C 17,7 C 14,5 km/h (3 Bft)
30.05.2017 04:15 18,6 C 67 % 1015,6 hPa 0,0 l/m 8,6 km/h (2 Bft) NE 51 12,3 C 17,6 C 12,9 km/h (3 Bft)
30.05.2017 04:10 18,6 C 67 % 1015,6 hPa 0,0 l/m 7,5 km/h (2 Bft) N-NE 20 12,3 C 18,1 C 14,5 km/h (3 Bft)
30.05.2017 04:05 18,7 C 67 % 1015,6 hPa 0,0 l/m 9,2 km/h (2 Bft) NE 51 12,4 C 17,5 C 16,1 km/h (3 Bft)
30.05.2017 04:00 18,7 C 67 % 1015,6 hPa 0,0 l/m 9,6 km/h (2 Bft) NE 48 12,4 C 17,4 C 16,1 km/h (3 Bft)
30.05.2017 03:55 18,7 C 68 % 1015,6 hPa 0,0 l/m 9,8 km/h (2 Bft) NE 46 12,7 C 17,3 C 16,1 km/h (3 Bft)
30.05.2017 03:50 18,7 C 68 % 1015,7 hPa 0,0 l/m 10,1 km/h (2 Bft) NE 34 12,7 C 17,2 C 17,7 km/h (3 Bft)
30.05.2017 03:45 18,8 C 68 % 1015,7 hPa 0,0 l/m 11,5 km/h (2 Bft) N-NE 28 12,8 C 16,8 C 20,9 km/h (4 Bft)
30.05.2017 03:40 18,8 C 68 % 1015,7 hPa 0,0 l/m 9,4 km/h (2 Bft) NE 56 12,8 C 17,5 C 14,5 km/h (3 Bft)
30.05.2017 03:35 18,9 C 68 % 1015,8 hPa 0,0 l/m 12,2 km/h (2 Bft) NE 53 12,9 C 16,7 C 19,3 km/h (3 Bft)
30.05.2017 03:30 18,8 C 68 % 1015,8 hPa 0,0 l/m 10,7 km/h (2 Bft) N-NE 25 12,8 C 17,1 C 16,1 km/h (3 Bft)
30.05.2017 03:25 18,8 C 69 % 1015,8 hPa 0,0 l/m 10,6 km/h (2 Bft) NE 40 13,0 C 17,1 C 20,9 km/h (4 Bft)
30.05.2017 03:20 18,7 C 69 % 1015,9 hPa 0,0 l/m 10,9 km/h (2 Bft) NE 51 12,9 C 16,9 C 17,7 km/h (3 Bft)
30.05.2017 03:15 18,6 C 70 % 1015,9 hPa 0,0 l/m 9,2 km/h (2 Bft) NE 50 13,0 C 17,4 C 16,1 km/h (3 Bft)
30.05.2017 03:10 18,6 C 71 % 1015,9 hPa 0,0 l/m 8,1 km/h (2 Bft) NE 49 13,2 C 17,8 C 12,9 km/h (3 Bft)
30.05.2017 03:05 18,6 C 72 % 1015,9 hPa 0,0 l/m 9,7 km/h (2 Bft) E-NE 73 13,4 C 17,2 C 17,7 km/h (3 Bft)
30.05.2017 03:00 18,6 C 72 % 1016,0 hPa 0,0 l/m 10,0 km/h (2 Bft) E-NE 62 13,4 C 17,1 C 19,3 km/h (3 Bft)
30.05.2017 02:55 18,6 C 73 % 1015,9 hPa 0,0 l/m 11,1 km/h (2 Bft) NE 46 13,7 C 16,7 C 17,7 km/h (3 Bft)
30.05.2017 02:50 18,6 C 74 % 1016,1 hPa 0,0 l/m 13,4 km/h (3 Bft) E-NE 58 13,9 C 16,0 C 20,9 km/h (4 Bft)
30.05.2017 02:46 18,6 C 75 % 1016,1 hPa 0,0 l/m 13,6 km/h (3 Bft) NE 52 14,1 C 15,9 C 22,5 km/h (4 Bft)
30.05.2017 02:40 18,3 C 77 % 1016,2 hPa 0,0 l/m 13,9 km/h (3 Bft) E-NE 66 14,2 C 15,5 C 20,9 km/h (4 Bft)
30.05.2017 02:35 18,3 C 79 % 1016,3 hPa 0,0 l/m 11,7 km/h (2 Bft) N-NE 20 14,6 C 16,2 C 17,7 km/h (3 Bft)
30.05.2017 02:30 18,3 C 81 % 1016,3 hPa 0,0 l/m 10,6 km/h (2 Bft) E-NE 58 15,0 C 16,5 C 17,7 km/h (3 Bft)
30.05.2017 02:25 18,3 C 81 % 1016,3 hPa 0,0 l/m 11,3 km/h (2 Bft) NE 53 15,0 C 16,3 C 19,3 km/h (3 Bft)
30.05.2017 02:20 18,3 C 81 % 1016,4 hPa 0,0 l/m 10,9 km/h (2 Bft) N-NE 32 15,0 C 16,4 C 17,7 km/h (3 Bft)
30.05.2017 02:15 18,4 C 79 % 1016,4 hPa 0,0 l/m 10,8 km/h (2 Bft) N 357 14,7 C 16,6 C 17,7 km/h (3 Bft)
30.05.2017 02:10 18,4 C 79 % 1016,4 hPa 0,0 l/m 11,2 km/h (2 Bft) NE 36 14,7 C 16,5 C 17,7 km/h (3 Bft)
30.05.2017 02:05 18,5 C 79 % 1016,4 hPa 0,0 l/m 9,0 km/h (2 Bft) N-NE 22 14,8 C 17,4 C 17,7 km/h (3 Bft)
30.05.2017 02:00 18,4 C 78 % 1016,3 hPa 0,0 l/m 8,7 km/h (2 Bft) N-NE 20 14,5 C 17,4 C 14,5 km/h (3 Bft)
30.05.2017 01:55 18,3 C 78 % 1016,3 hPa 0,0 l/m 4,5 km/h (1 Bft) N-NW 342 14,4 C 18,3 C 11,3 km/h (2 Bft)
30.05.2017 01:50 18,4 C 77 % 1016,3 hPa 0,0 l/m 4,9 km/h (1 Bft) NE 49 14,3 C 18,4 C 11,3 km/h (2 Bft)
30.05.2017 01:45 18,6 C 75 % 1016,4 hPa 0,0 l/m 4,5 km/h (1 Bft) NE 41 14,1 C 18,6 C 8,0 km/h (2 Bft)
30.05.2017 01:40 18,7 C 73 % 1016,4 hPa 0,0 l/m 4,1 km/h (1 Bft) NE 39 13,8 C 18,7 C 6,4 km/h (2 Bft)
30.05.2017 01:35 18,9 C 71 % 1016,5 hPa 0,0 l/m 1,7 km/h (1 Bft) NE 49 13,5 C 18,9 C 6,4 km/h (2 Bft)
30.05.2017 01:30 19,1 C 69 % 1016,5 hPa 0,0 l/m 1,5 km/h (1 Bft) N-NE 20 13,3 C 19,1 C 4,8 km/h (1 Bft)
30.05.2017 01:25 19,2 C 69 % 1016,5 hPa 0,0 l/m 5,5 km/h (1 Bft) N-NE 14 13,4 C 19,2 C 9,7 km/h (2 Bft)
30.05.2017 01:20 19,3 C 68 % 1016,5 hPa 0,0 l/m 8,1 km/h (2 Bft) N-NE 30 13,2 C 18,6 C 12,9 km/h (3 Bft)
30.05.2017 01:15 19,1 C 69 % 1016,5 hPa 0,0 l/m 7,8 km/h (2 Bft) NE 49 13,3 C 18,5 C 14,5 km/h (3 Bft)
30.05.2017 01:10 19,1 C 70 % 1016,6 hPa 0,0 l/m 7,1 km/h (2 Bft) NE 42 13,5 C 18,8 C 12,9 km/h (3 Bft)
30.05.2017 01:05 19,1 C 70 % 1016,5 hPa 0,0 l/m 5,6 km/h (1 Bft) N-NE 27 13,5 C 19,1 C 12,9 km/h (3 Bft)
30.05.2017 01:00 19,2 C 70 % 1016,5 hPa 0,0 l/m 7,3 km/h (2 Bft) NE 38 13,6 C 18,8 C 14,5 km/h (3 Bft)
30.05.2017 00:55 19,2 C 70 % 1016,5 hPa 0,0 l/m 7,3 km/h (2 Bft) NE 37 13,6 C 18,8 C 14,5 km/h (3 Bft)
30.05.2017 00:50 19,2 C 71 % 1016,5 hPa 0,0 l/m 10,4 km/h (2 Bft) NE 53 13,8 C 17,6 C 19,3 km/h (3 Bft)
30.05.2017 00:45 19,1 C 72 % 1016,6 hPa 0,0 l/m 6,8 km/h (2 Bft) NE 39 13,9 C 18,9 C 14,5 km/h (3 Bft)
30.05.2017 00:40 19,1 C 72 % 1016,6 hPa 0,0 l/m 5,5 km/h (1 Bft) NE 46 13,9 C 19,1 C 11,3 km/h (2 Bft)
30.05.2017 00:35 19,0 C 74 % 1016,6 hPa 0,0 l/m 5,8 km/h (2 Bft) NE 49 14,3 C 19,0 C 12,9 km/h (3 Bft)
30.05.2017 00:30 18,9 C 76 % 1016,6 hPa 0,0 l/m 4,8 km/h (1 Bft) NE 41 14,6 C 18,9 C 11,3 km/h (2 Bft)
30.05.2017 00:25 19,1 C 78 % 1016,6 hPa 0,0 l/m 9,1 km/h (2 Bft) N-NE 22 15,2 C 18,0 C 16,1 km/h (3 Bft)
30.05.2017 00:20 18,9 C 78 % 1016,6 hPa 0,0 l/m 8,3 km/h (2 Bft) NE 56 15,0 C 18,1 C 16,1 km/h (3 Bft)
30.05.2017 00:15 18,9 C 79 % 1016,7 hPa 0,0 l/m 7,9 km/h (2 Bft) E-NE 60 15,2 C 18,2 C 12,9 km/h (3 Bft)
30.05.2017 00:10 18,9 C 82 % 1016,7 hPa 0,0 l/m 6,4 km/h (2 Bft) NE 34 15,8 C 18,9 C 11,3 km/h (2 Bft)
30.05.2017 00:05 18,9 C 82 % 1016,8 hPa 0,0 l/m 6,0 km/h (2 Bft) NE 36 15,8 C 18,9 C 11,3 km/h (2 Bft)
30.05.2017 00:00 18,8 C 80 % 1016,8 hPa 0,0 l/m 2,6 km/h (1 Bft) N-NW 333 15,3 C 18,8 C 9,7 km/h (2 Bft)
_ Min-Time 05:20 06:30 04:50 - 07:35 - - 05:50 02:40 07:35
Minimum _ 18,1 C 63 % 1015,5 hPa - 0,0 km/h (0 Bft) - - 11,8 C 15,5 C 0,0 km/h (0 Bft)
_ Max-Time 10:40 00:05 12:15 00:00 02:40 - - 12:05 10:40 02:46
Maximum _ 22,0 C 82 % 1017,9 hPa 0,0 l/m 13,9 km/h
E-NE (3 Bft)
- - 16,9 C 21,9 C 22,5 km/h
NE (4 Bft)
Average _ 19,7 C 71 % 1016,6 hPa #0,0 l/m 6,2 km/h (2 Bft) NE - 14,3 C 19,3 C 11,9 km/h (2 Bft)